MSC Ditte — D5LP2 — position and weather

sailwx.info

Track history (hours):
 
Tides and Currents Weather Stations Pressure Air Temp Water Temp Dewpoint Dewpoint Depression Visibility Wind Speed Wind Dir Waves Ship Positions

MSC Ditte

Last reported at 2017-Nov-23 05:21 UTC. Time now 2017-Nov-23 05:42 UTC.
Position N 36°09' W 005°26'.

Length 398 m; draft 14.5 m.

Type: Ship (hazmat cat A). MMSI: 636017569.

Date/timePositionNaut miles runAvg speedWind from/ knotsBaromVisibWave heightAir tempDewpointWater temp
2017-Nov-23 05:21N 36°09' W 005°26'0 0.0
2017-Nov-23 01:30N 36°09' W 005°26'0 0.0
2017-Nov-23 00:54N 36°09' W 005°26'0 0.0
2017-Nov-23 00:27N 36°09' W 005°26'0 0.0
2017-Nov-22 23:57N 36°09' W 005°26'0 0.0
2017-Nov-22 23:30N 36°09' W 005°26'0 0.0
2017-Nov-22 23:00N 36°09' W 005°26'0 0.0
2017-Nov-22 22:30N 36°09' W 005°26'0 0.0
2017-Nov-22 22:00N 36°09' W 005°26'0 0.0
2017-Nov-22 21:30N 36°09' W 005°26'0 0.0
2017-Nov-22 20:57N 36°09' W 005°26'0 0.0
2017-Nov-22 20:27N 36°09' W 005°26'0 0.0
2017-Nov-22 20:00N 36°09' W 005°26'0 0.0
2017-Nov-22 19:27N 36°09' W 005°26'  
2017-Nov-18 18:54N 31°49' E 031°50'818.7
2017-Nov-18 18:30N 31°46' E 031°58'1918.4
2017-Nov-18 17:29N 31°33' E 032°14'1911.9
2017-Nov-18 15:51N 31°14' E 032°21'15 8.5
2017-Nov-18 14:06N 30°59' E 032°19'1 9.2
2017-Nov-18 14:00N 30°59' E 032°19'9 9.3
2017-Nov-18 13:04N 30°50' E 032°19'1 9.4
2017-Nov-18 13:00N 30°49' E 032°19'5 9.6
2017-Nov-18 12:30N 30°44' E 032°20'  
Track history (hours):
 
Tides and Currents Weather Stations Pressure Air Temp Water Temp Dewpoint Dewpoint Depression Visibility Wind Speed Wind Dir Waves Ship Positions

MSC Ditte

Last reported at 2017-Nov-23 05:21 UTC. Time now 2017-Nov-23 05:42 UTC.
Position N 36°09' W 005°26'.

Length 398 m; draft 14.5 m.

Type: Ship (hazmat cat A). MMSI: 636017569.

Date/timePositionNaut miles runAvg speedWind from/ knotsBaromVisibWave heightAir tempDewpointWater temp
2017-Nov-23 05:21N 36°09' W 005°26'0 0.0
2017-Nov-23 01:30N 36°09' W 005°26'0 0.0
2017-Nov-23 00:54N 36°09' W 005°26'0 0.0
2017-Nov-23 00:27N 36°09' W 005°26'0 0.0
2017-Nov-22 23:57N 36°09' W 005°26'0 0.0
2017-Nov-22 23:30N 36°09' W 005°26'0 0.0
2017-Nov-22 23:00N 36°09' W 005°26'0 0.0
2017-Nov-22 22:30N 36°09' W 005°26'0 0.0
2017-Nov-22 22:00N 36°09' W 005°26'0 0.0
2017-Nov-22 21:30N 36°09' W 005°26'0 0.0
2017-Nov-22 20:57N 36°09' W 005°26'0 0.0
2017-Nov-22 20:27N 36°09' W 005°26'0 0.0
2017-Nov-22 20:00N 36°09' W 005°26'0 0.0
2017-Nov-22 19:27N 36°09' W 005°26'  
2017-Nov-18 18:54N 31°49' E 031°50'818.7
2017-Nov-18 18:30N 31°46' E 031°58'1918.4
2017-Nov-18 17:29N 31°33' E 032°14'1911.9
2017-Nov-18 15:51N 31°14' E 032°21'15 8.5
2017-Nov-18 14:06N 30°59' E 032°19'1 9.2
2017-Nov-18 14:00N 30°59' E 032°19'9 9.3
2017-Nov-18 13:04N 30°50' E 032°19'1 9.4
2017-Nov-18 13:00N 30°49' E 032°19'5 9.6
2017-Nov-18 12:30N 30°44' E 032°20'  

Dump ship's entire track history